sensor_id;sensor_type;location;lat;lon;timestamp;pressure;altitude;pressure_sealevel;temperature;humidity
57616;BME280;43816;52.054;-9.494;2023-10-08T20:14:54;101893.91;;;28.11;44.20
57616;BME280;43816;52.054;-9.494;2023-10-08T20:15:04;101868.97;;;27.97;43.99
57616;BME280;43816;52.054;-9.494;2023-10-08T20:24:59;101836.53;;;27.78;43.90
57616;BME280;43816;52.054;-9.494;2023-10-08T20:35:15;101883.22;;;27.94;43.69
57616;BME280;43816;52.054;-9.494;2023-10-08T20:35:26;101889.19;;;27.98;43.69
57616;BME280;43816;52.054;-9.494;2023-10-08T20:35:37;101881.25;;;27.88;43.96
57616;BME280;43816;52.054;-9.494;2023-10-08T20:35:51;101878.50;;;27.88;43.58
57616;BME280;43816;52.054;-9.494;2023-10-08T20:36:01;101891.72;;;27.93;43.90
57616;BME280;43816;52.054;-9.494;2023-10-08T20:36:14;101894.72;;;27.98;43.82
57616;BME280;43816;52.054;-9.494;2023-10-08T20:36:24;101893.22;;;27.95;43.88
57616;BME280;43816;52.054;-9.494;2023-10-08T20:36:34;101885.97;;;27.94;43.64
57616;BME280;43816;52.054;-9.494;2023-10-08T20:36:45;101896.63;;;27.97;43.76
57616;BME280;43816;52.054;-9.494;2023-10-08T20:36:55;101891.50;;;27.94;43.54
57616;BME280;43816;52.054;-9.494;2023-10-08T20:37:05;101899.41;;;27.97;43.86
57616;BME280;43816;52.054;-9.494;2023-10-08T20:37:16;101891.88;;;27.91;43.87
57616;BME280;43816;52.054;-9.494;2023-10-08T20:37:27;101895.78;;;27.97;43.82
57616;BME280;43816;52.054;-9.494;2023-10-08T20:37:37;101889.34;;;27.90;43.58
57616;BME280;43816;52.054;-9.494;2023-10-08T20:37:48;101877.63;;;27.87;43.90
57616;BME280;43816;52.054;-9.494;2023-10-08T20:37:59;101895.16;;;27.95;43.59
57616;BME280;43816;52.054;-9.494;2023-10-08T20:38:10;101882.09;;;27.88;43.36
57616;BME280;43816;52.054;-9.494;2023-10-08T20:38:20;101898.34;;;27.98;43.83
57616;BME280;43816;52.054;-9.494;2023-10-08T20:38:30;101887.22;;;27.92;43.68
57616;BME280;43816;52.054;-9.494;2023-10-08T20:38:40;101885.50;;;27.91;43.79
57616;BME280;43816;52.054;-9.494;2023-10-08T20:38:51;101903.00;;;27.98;43.72
57616;BME280;43816;52.054;-9.494;2023-10-08T20:39:01;101898.34;;;27.98;43.86
57616;BME280;43816;52.054;-9.494;2023-10-08T20:39:11;101869.97;;;27.83;43.73
57616;BME280;43816;52.054;-9.494;2023-10-08T20:39:22;101895.16;;;27.95;43.66
57616;BME280;43816;52.054;-9.494;2023-10-08T20:39:32;101887.69;;;27.95;43.69
57616;BME280;43816;52.054;-9.494;2023-10-08T20:39:42;101889.81;;;27.93;43.71
57616;BME280;43816;52.054;-9.494;2023-10-08T20:39:52;101892.19;;;27.96;44.13
57616;BME280;43816;52.054;-9.494;2023-10-08T20:40:03;101901.31;;;27.97;43.67
57616;BME280;43816;52.054;-9.494;2023-10-08T20:40:14;101886.19;;;27.93;43.45
57616;BME280;43816;52.054;-9.494;2023-10-08T20:40:24;101892.63;;;28.00;43.81
57616;BME280;43816;52.054;-9.494;2023-10-08T20:40:36;101871.88;;;27.89;43.81
57616;BME280;43816;52.054;-9.494;2023-10-08T20:40:46;101885.31;;;27.92;43.57
57616;BME280;43816;52.054;-9.494;2023-10-08T20:40:56;101884.53;;;27.98;43.57
57616;BME280;43816;52.054;-9.494;2023-10-08T20:41:17;101889.81;;;27.93;43.60
57616;BME280;43816;52.054;-9.494;2023-10-08T20:41:27;101880.66;;;27.93;43.67
57616;BME280;43816;52.054;-9.494;2023-10-08T20:41:38;101893.22;;;27.95;43.81
57616;BME280;43816;52.054;-9.494;2023-10-08T20:41:48;101893.03;;;27.97;43.62
57616;BME280;43816;52.054;-9.494;2023-10-08T20:41:58;101869.31;;;27.87;43.78
57616;BME280;43816;52.054;-9.494;2023-10-08T20:42:08;101882.38;;;27.94;43.53
57616;BME280;43816;52.054;-9.494;2023-10-08T20:42:19;101872.75;;;27.90;43.60
57616;BME280;43816;52.054;-9.494;2023-10-08T20:42:29;101885.56;;;27.97;43.62
57616;BME280;43816;52.054;-9.494;2023-10-08T20:42:40;101888.97;;;27.99;43.52
57616;BME280;43816;52.054;-9.494;2023-10-08T20:42:51;101884.72;;;27.97;43.40
57616;BME280;43816;52.054;-9.494;2023-10-08T20:43:02;101873.41;;;27.92;43.57
57616;BME280;43816;52.054;-9.494;2023-10-08T20:43:13;101890.91;;;27.99;43.54
57616;BME280;43816;52.054;-9.494;2023-10-08T20:43:23;101884.94;;;27.95;43.85
57616;BME280;43816;52.054;-9.494;2023-10-08T20:43:34;101878.75;;;27.93;43.57
57616;BME280;43816;52.054;-9.494;2023-10-08T20:43:44;101881.53;;;27.93;43.53
57616;BME280;43816;52.054;-9.494;2023-10-08T20:43:54;101886.41;;;27.98;43.75
57616;BME280;43816;52.054;-9.494;2023-10-08T20:44:05;101858.22;;;27.81;43.38
57616;BME280;43816;52.054;-9.494;2023-10-08T20:44:15;101879.78;;;27.92;43.41
57616;BME280;43816;52.054;-9.494;2023-10-08T20:44:25;101887.91;;;27.94;43.68
57616;BME280;43816;52.054;-9.494;2023-10-08T20:44:36;101883.88;;;27.96;43.27
57616;BME280;43816;52.054;-9.494;2023-10-08T20:44:46;101883.81;;;27.90;43.47
57616;BME280;43816;52.054;-9.494;2023-10-08T20:44:57;101891.72;;;27.99;43.52
57616;BME280;43816;52.054;-9.494;2023-10-08T20:45:08;101883.88;;;27.96;43.54
57616;BME280;43816;52.054;-9.494;2023-10-08T20:45:19;101874.91;;;27.94;43.52
57616;BME280;43816;52.054;-9.494;2023-10-08T20:45:29;101858.03;;;27.82;43.44
57616;BME280;43816;52.054;-9.494;2023-10-08T20:45:40;101877.88;;;27.93;43.64
57616;BME280;43816;52.054;-9.494;2023-10-08T20:45:50;101878.75;;;27.93;43.58
57616;BME280;43816;52.054;-9.494;2023-10-08T20:46:01;101875.28;;;27.91;43.72
57616;BME280;43816;52.054;-9.494;2023-10-08T20:46:18;101882.16;;;27.95;43.37
57616;BME280;43816;52.054;-9.494;2023-10-08T20:46:28;101874.91;;;27.94;43.34
57616;BME280;43816;52.054;-9.494;2023-10-08T20:46:39;101867.44;;;27.88;43.46
57616;BME280;43816;52.054;-9.494;2023-10-08T20:46:49;101874.91;;;27.94;43.36
57616;BME280;43816;52.054;-9.494;2023-10-08T20:47:00;101890.69;;;28.00;43.51
57616;BME280;43816;52.054;-9.494;2023-10-08T20:47:10;101880.25;;;27.96;43.50
57616;BME280;43816;52.054;-9.494;2023-10-08T20:47:20;101870.84;;;27.90;43.49
57616;BME280;43816;52.054;-9.494;2023-10-08T20:47:30;101876.16;;;27.92;43.64
57616;BME280;43816;52.054;-9.494;2023-10-08T20:47:41;101882.59;;;27.99;43.84
57616;BME280;43816;52.054;-9.494;2023-10-08T20:47:56;101885.56;;;27.97;43.41
57616;BME280;43816;52.054;-9.494;2023-10-08T20:48:07;101871.47;;;27.92;43.20
57616;BME280;43816;52.054;-9.494;2023-10-08T20:48:17;101881.13;;;27.96;43.42
57616;BME280;43816;52.054;-9.494;2023-10-08T20:48:27;101881.75;;;27.98;43.65
57616;BME280;43816;52.054;-9.494;2023-10-08T20:48:38;101876.00;;;27.93;43.27
57616;BME280;43816;52.054;-9.494;2023-10-08T20:48:51;101862.09;;;27.86;43.38
57616;BME280;43816;52.054;-9.494;2023-10-08T20:49:01;101881.13;;;27.96;43.63
57616;BME280;43816;52.054;-9.494;2023-10-08T20:49:11;101867.00;;;27.91;43.42
57616;BME280;43816;52.054;-9.494;2023-10-08T20:49:21;101869.75;;;27.91;43.60
57616;BME280;43816;52.054;-9.494;2023-10-08T20:49:32;101882.81;;;27.97;43.11
57616;BME280;43816;52.054;-9.494;2023-10-08T20:49:42;101877.00;;;27.92;43.28
57616;BME280;43816;52.054;-9.494;2023-10-08T20:49:52;101872.53;;;27.91;43.39
57616;BME280;43816;52.054;-9.494;2023-10-08T20:50:03;101877.00;;;27.92;43.51
57616;BME280;43816;52.054;-9.494;2023-10-08T20:50:13;101873.41;;;27.92;43.22
57616;BME280;43816;52.054;-9.494;2023-10-08T20:50:26;101867.22;;;27.90;43.26
57616;BME280;43816;52.054;-9.494;2023-10-08T20:50:36;101869.75;;;27.91;43.23
57616;BME280;43816;52.054;-9.494;2023-10-08T20:50:46;101872.34;;;27.93;43.17
57616;BME280;43816;52.054;-9.494;2023-10-08T20:50:57;101869.53;;;27.86;43.35
57616;BME280;43816;52.054;-9.494;2023-10-08T20:51:10;101882.16;;;27.95;43.34
57616;BME280;43816;52.054;-9.494;2023-10-08T20:51:20;101865.50;;;27.88;43.39
57616;BME280;43816;52.054;-9.494;2023-10-08T20:51:31;101878.13;;;27.98;43.52
57616;BME280;43816;52.054;-9.494;2023-10-08T20:51:41;101874.44;;;27.91;43.30
57616;BME280;43816;52.054;-9.494;2023-10-08T20:51:52;101881.31;;;27.95;43.06
57616;BME280;43816;52.054;-9.494;2023-10-08T20:52:02;101877.00;;;27.92;43.26
57616;BME280;43816;52.054;-9.494;2023-10-08T20:52:13;101884.09;;;27.95;43.52
57616;BME280;43816;52.054;-9.494;2023-10-08T20:52:23;101871.25;;;27.87;43.37
57616;BME280;43816;52.054;-9.494;2023-10-08T20:52:33;101881.13;;;27.96;43.41
57616;BME280;43816;52.054;-9.494;2023-10-08T20:52:51;101887.91;;;27.94;43.68
57616;BME280;43816;52.054;-9.494;2023-10-08T20:53:01;101884.72;;;27.97;43.09
57616;BME280;43816;52.054;-9.494;2023-10-08T20:53:12;101883.00;;;27.96;43.42
57616;BME280;43816;52.054;-9.494;2023-10-08T20:53:22;101877.00;;;27.92;43.37
57616;BME280;43816;52.054;-9.494;2023-10-08T20:53:32;101872.34;;;27.93;43.28
57616;BME280;43816;52.054;-9.494;2023-10-08T20:53:44;101881.53;;;27.93;43.16
57616;BME280;43816;52.054;-9.494;2023-10-08T20:53:54;101890.66;;;27.94;43.34
57616;BME280;43816;52.054;-9.494;2023-10-08T20:54:04;101877.47;;;27.96;43.21
57616;BME280;43816;52.054;-9.494;2023-10-08T20:54:15;101881.53;;;27.93;43.21
57616;BME280;43816;52.054;-9.494;2023-10-08T20:54:25;101873.59;;;27.90;43.24
57616;BME280;43816;52.054;-9.494;2023-10-08T20:54:36;101882.16;;;27.95;43.25
57616;BME280;43816;52.054;-9.494;2023-10-08T20:54:46;101882.94;;;27.89;43.19
57616;BME280;43816;52.054;-9.494;2023-10-08T20:54:56;101859.94;;;27.82;43.09
57616;BME280;43816;52.054;-9.494;2023-10-08T20:55:07;101868.06;;;27.90;43.33
57616;BME280;43816;52.054;-9.494;2023-10-08T20:55:21;101871.44;;;27.85;43.06
57616;BME280;43816;52.054;-9.494;2023-10-08T20:55:36;101882.16;;;27.95;43.13
57616;BME280;43816;52.054;-9.494;2023-10-08T20:55:47;101881.06;;;27.90;43.26
57616;BME280;43816;52.054;-9.494;2023-10-08T20:55:57;101878.75;;;27.93;43.28
57616;BME280;43816;52.054;-9.494;2023-10-08T20:56:07;101869.31;;;27.87;43.24
57616;BME280;43816;52.054;-9.494;2023-10-08T20:56:18;101889.63;;;27.95;43.24
57616;BME280;43816;52.054;-9.494;2023-10-08T20:56:28;101865.47;;;27.82;43.15
57616;BME280;43816;52.054;-9.494;2023-10-08T20:56:38;101882.38;;;27.94;43.06
57616;BME280;43816;52.054;-9.494;2023-10-08T20:56:48;101885.31;;;27.92;43.35
57616;BME280;43816;52.054;-9.494;2023-10-08T20:56:59;101880.38;;;27.87;43.19
57616;BME280;43816;52.054;-9.494;2023-10-08T20:57:10;101882.16;;;27.95;43.10
57616;BME280;43816;52.054;-9.494;2023-10-08T20:57:20;101885.31;;;27.92;43.34
57616;BME280;43816;52.054;-9.494;2023-10-08T20:57:30;101875.53;;;27.90;43.32
57616;BME280;43816;52.054;-9.494;2023-10-08T20:57:45;101878.69;;;27.86;43.09
57616;BME280;43816;52.054;-9.494;2023-10-08T20:57:55;101888.28;;;27.91;43.24
57616;BME280;43816;52.054;-9.494;2023-10-08T20:58:05;101878.75;;;27.93;43.14
57616;BME280;43816;52.054;-9.494;2023-10-08T20:58:16;101886.19;;;27.93;43.09
57616;BME280;43816;52.054;-9.494;2023-10-08T20:58:26;101864.63;;;27.81;43.27
57616;BME280;43816;52.054;-9.494;2023-10-08T20:58:36;101870.19;;;27.88;43.40
57616;BME280;43816;52.054;-9.494;2023-10-08T20:58:47;101877.00;;;27.92;42.77
57616;BME280;43816;52.054;-9.494;2023-10-08T20:58:57;101882.75;;;27.91;43.25
57616;BME280;43816;52.054;-9.494;2023-10-08T20:59:07;101877.88;;;27.93;43.22
57616;BME280;43816;52.054;-9.494;2023-10-08T20:59:18;101879.78;;;27.92;43.36
57616;BME280;43816;52.054;-9.494;2023-10-08T20:59:28;101864.84;;;27.80;43.41
57616;BME280;43816;52.054;-9.494;2023-10-08T20:59:39;101878.75;;;27.93;43.14
57616;BME280;43816;52.054;-9.494;2023-10-08T20:59:49;101882.94;;;27.89;43.06
57616;BME280;43816;52.054;-9.494;2023-10-08T20:59:59;101875.13;;;27.93;43.44
57616;BME280;43816;52.054;-9.494;2023-10-08T21:00:10;101858.22;;;27.81;43.14
57616;BME280;43816;52.054;-9.494;2023-10-08T21:00:23;101873.16;;;27.86;43.24
57616;BME280;43816;52.054;-9.494;2023-10-08T21:00:33;101868.47;;;27.87;43.12
57616;BME280;43816;52.054;-9.494;2023-10-08T21:00:44;101879.78;;;27.92;43.08
57616;BME280;43816;52.054;-9.494;2023-10-08T21:00:55;101873.41;;;27.92;43.17
57616;BME280;43816;52.054;-9.494;2023-10-08T21:01:05;101870.84;;;27.90;43.18
57616;BME280;43816;52.054;-9.494;2023-10-08T21:01:15;101868.72;;;27.92;43.33
57616;BME280;43816;52.054;-9.494;2023-10-08T21:01:29;101868.47;;;27.87;43.11
57616;BME280;43816;52.054;-9.494;2023-10-08T21:01:40;101871.69;;;27.91;43.12
57616;BME280;43816;52.054;-9.494;2023-10-08T21:01:50;101873.16;;;27.86;43.21
57616;BME280;43816;52.054;-9.494;2023-10-08T21:02:01;101871.69;;;27.91;43.20
57616;BME280;43816;52.054;-9.494;2023-10-08T21:02:11;101875.06;;;27.86;42.98
57616;BME280;43816;52.054;-9.494;2023-10-08T21:02:21;101852.06;;;27.79;43.24
57616;BME280;43816;52.054;-9.494;2023-10-08T21:02:31;101870.19;;;27.88;43.16
57616;BME280;43816;52.054;-9.494;2023-10-08T21:02:42;101850.59;;;27.83;43.29
57616;BME280;43816;52.054;-9.494;2023-10-08T21:02:52;101866.16;;;27.91;43.17
57616;BME280;43816;52.054;-9.494;2023-10-08T21:03:03;101873.59;;;27.90;43.07
57616;BME280;43816;52.054;-9.494;2023-10-08T21:03:14;101851.66;;;27.82;43.30
57616;BME280;43816;52.054;-9.494;2023-10-08T21:03:24;101861.69;;;27.90;43.11
57616;BME280;43816;52.054;-9.494;2023-10-08T21:03:35;101860.59;;;27.84;43.21
57616;BME280;43816;52.054;-9.494;2023-10-08T21:03:45;101864.19;;;27.84;42.96
57616;BME280;43816;52.054;-9.494;2023-10-08T21:03:55;101872.75;;;27.90;42.91
57616;BME280;43816;52.054;-9.494;2023-10-08T21:04:05;101855.88;;;27.78;43.08
57616;BME280;43816;52.054;-9.494;2023-10-08T21:04:16;101876.38;;;27.90;43.22
57616;BME280;43816;52.054;-9.494;2023-10-08T21:04:26;101861.66;;;27.83;43.21
57616;BME280;43816;52.054;-9.494;2023-10-08T21:04:39;101855.47;;;27.81;43.24
57616;BME280;43816;52.054;-9.494;2023-10-08T21:04:49;101859.31;;;27.80;43.07
57616;BME280;43816;52.054;-9.494;2023-10-08T21:04:59;101882.94;;;27.89;43.15
57616;BME280;43816;52.054;-9.494;2023-10-08T21:05:10;101846.53;;;27.79;42.98
57616;BME280;43816;52.054;-9.494;2023-10-08T21:05:20;101863.34;;;27.84;42.97
57616;BME280;43816;52.054;-9.494;2023-10-08T21:05:33;101868.28;;;27.88;43.02
57616;BME280;43816;52.054;-9.494;2023-10-08T21:05:43;101864.00;;;27.86;43.25
57616;BME280;43816;52.054;-9.494;2023-10-08T21:05:53;101865.06;;;27.85;42.91
57616;BME280;43816;52.054;-9.494;2023-10-08T21:06:04;101875.94;;;27.86;43.26
57616;BME280;43816;52.054;-9.494;2023-10-08T21:06:18;101871.00;;;27.82;43.11
57616;BME280;43816;52.054;-9.494;2023-10-08T21:06:28;101865.47;;;27.82;43.26
57616;BME280;43816;52.054;-9.494;2023-10-08T21:06:39;101870.19;;;27.88;43.17
57616;BME280;43816;52.054;-9.494;2023-10-08T21:06:50;101854.81;;;27.79;43.15
57616;BME280;43816;52.054;-9.494;2023-10-08T21:07:01;101872.09;;;27.87;42.96
57616;BME280;43816;52.054;-9.494;2023-10-08T21:07:11;101869.09;;;27.82;42.98
57616;BME280;43816;52.054;-9.494;2023-10-08T21:07:21;101853.09;;;27.78;42.99
57616;BME280;43816;52.054;-9.494;2023-10-08T21:07:32;101862.72;;;27.82;43.26
57616;BME280;43816;52.054;-9.494;2023-10-08T21:07:42;101866.31;;;27.82;43.08
57616;BME280;43816;52.054;-9.494;2023-10-08T21:07:53;101869.97;;;27.83;43.30
57616;BME280;43816;52.054;-9.494;2023-10-08T21:08:05;101862.50;;;27.83;43.15
57616;BME280;43816;52.054;-9.494;2023-10-08T21:08:15;101861.00;;;27.81;43.36
57616;BME280;43816;52.054;-9.494;2023-10-08T21:08:25;101875.06;;;27.86;43.31
57616;BME280;43816;52.054;-9.494;2023-10-08T21:08:36;101860.13;;;27.74;42.89
57616;BME280;43816;52.054;-9.494;2023-10-08T21:08:46;101868.47;;;27.87;43.23
57616;BME280;43816;52.054;-9.494;2023-10-08T21:08:56;101862.69;;;27.75;43.17
57616;BME280;43816;52.054;-9.494;2023-10-08T21:09:06;101877.81;;;27.86;43.41
57616;BME280;43816;52.054;-9.494;2023-10-08T21:09:17;101870.41;;;27.86;42.91
57616;BME280;43816;52.054;-9.494;2023-10-08T21:09:27;101858.22;;;27.81;43.42
57616;BME280;43816;52.054;-9.494;2023-10-08T21:09:37;101877.81;;;27.86;42.93
57616;BME280;43816;52.054;-9.494;2023-10-08T21:09:47;101862.72;;;27.82;43.29
57616;BME280;43816;52.054;-9.494;2023-10-08T21:09:58;101856.34;;;27.81;42.97
57616;BME280;43816;52.054;-9.494;2023-10-08T21:10:08;101867.41;;;27.81;43.19
57616;BME280;43816;52.054;-9.494;2023-10-08T21:10:19;101879.75;;;27.85;43.01
57616;BME280;43816;52.054;-9.494;2023-10-08T21:10:33;101865.06;;;27.85;42.98
57616;BME280;43816;52.054;-9.494;2023-10-08T21:10:44;101867.59;;;27.80;43.17
57616;BME280;43816;52.054;-9.494;2023-10-08T21:10:54;101858.88;;;27.76;43.04
57616;BME280;43816;52.054;-9.494;2023-10-08T21:11:04;101856.53;;;27.80;43.06
57616;BME280;43816;52.054;-9.494;2023-10-08T21:11:14;101871.66;;;27.84;43.35
57616;BME280;43816;52.054;-9.494;2023-10-08T21:11:25;101864.16;;;27.78;43.31
57616;BME280;43816;52.054;-9.494;2023-10-08T21:11:35;101870.59;;;27.85;43.26
57616;BME280;43816;52.054;-9.494;2023-10-08T21:11:45;101871.00;;;27.82;43.00
57616;BME280;43816;52.054;-9.494;2023-10-08T21:11:56;101857.59;;;27.79;42.90
57616;BME280;43816;52.054;-9.494;2023-10-08T21:12:06;101867.59;;;27.80;43.07
57616;BME280;43816;52.054;-9.494;2023-10-08T21:12:16;101853.09;;;27.71;43.21
57616;BME280;43816;52.054;-9.494;2023-10-08T21:12:27;101857.59;;;27.79;42.93
57616;BME280;43816;52.054;-9.494;2023-10-08T21:12:39;101870.16;;;27.81;43.23
57616;BME280;43816;52.054;-9.494;2023-10-08T21:12:51;101862.72;;;27.82;43.27
57616;BME280;43816;52.054;-9.494;2023-10-08T21:13:02;101861.88;;;27.81;43.26
57616;BME280;43816;52.054;-9.494;2023-10-08T21:13:12;101865.28;;;27.83;43.25
57616;BME280;43816;52.054;-9.494;2023-10-08T21:13:22;101854.81;;;27.79;43.05
57616;BME280;43816;52.054;-9.494;2023-10-08T21:13:33;101842.50;;;27.75;42.93
57616;BME280;43816;52.054;-9.494;2023-10-08T21:13:43;101864.84;;;27.80;42.83
57616;BME280;43816;52.054;-9.494;2023-10-08T21:13:53;101861.41;;;27.78;43.03
57616;BME280;43816;52.054;-9.494;2023-10-08T21:14:04;101868.44;;;27.80;43.04
57616;BME280;43816;52.054;-9.494;2023-10-08T21:14:14;101844.59;;;27.73;42.79
57616;BME280;43816;52.054;-9.494;2023-10-08T21:14:24;101857.78;;;27.77;43.04
57616;BME280;43816;52.054;-9.494;2023-10-08T21:14:34;101848.03;;;27.75;43.09
57616;BME280;43816;52.054;-9.494;2023-10-08T21:14:45;101855.03;;;27.77;43.04
57616;BME280;43816;52.054;-9.494;2023-10-08T21:14:56;101864.63;;;27.81;43.30
57616;BME280;43816;52.054;-9.494;2023-10-08T21:15:14;101861.19;;;27.79;43.08
57616;BME280;43816;52.054;-9.494;2023-10-08T21:15:25;101860.75;;;27.76;42.99
57616;BME280;43816;52.054;-9.494;2023-10-08T21:15:35;101862.47;;;27.77;43.09
57616;BME280;43816;52.054;-9.494;2023-10-08T21:15:46;101845.88;;;27.70;43.17
57616;BME280;43816;52.054;-9.494;2023-10-08T21:15:56;101865.03;;;27.78;43.10
57616;BME280;43816;52.054;-9.494;2023-10-08T21:16:13;101856.75;;;27.78;43.21
57616;BME280;43816;52.054;-9.494;2023-10-08T21:16:23;101870.16;;;27.81;43.13
57616;BME280;43816;52.054;-9.494;2023-10-08T21:16:33;101869.28;;;27.81;43.06
57616;BME280;43816;52.054;-9.494;2023-10-08T21:16:45;101863.53;;;27.76;43.11
57616;BME280;43816;52.054;-9.494;2023-10-08T21:16:56;101853.97;;;27.72;43.29
57616;BME280;43816;52.054;-9.494;2023-10-08T21:17:06;101864.84;;;27.80;43.27
57616;BME280;43816;52.054;-9.494;2023-10-08T21:17:16;101840.53;;;27.68;43.24
57616;BME280;43816;52.054;-9.494;2023-10-08T21:17:26;101853.97;;;27.72;43.08
57616;BME280;43816;52.054;-9.494;2023-10-08T21:17:38;101855.63;;;27.73;43.03
57616;BME280;43816;52.054;-9.494;2023-10-08T21:17:49;101864.84;;;27.80;43.22
57616;BME280;43816;52.054;-9.494;2023-10-08T21:18:00;101862.69;;;27.75;43.32
57616;BME280;43816;52.054;-9.494;2023-10-08T21:18:10;101848.00;;;27.68;43.21
57616;BME280;43816;52.054;-9.494;2023-10-08T21:18:22;101859.72;;;27.77;43.13
57616;BME280;43816;52.054;-9.494;2023-10-08T21:18:32;101868.66;;;27.79;42.95
57616;BME280;43816;52.054;-9.494;2023-10-08T21:18:42;101868.66;;;27.79;42.95
57616;BME280;43816;52.054;-9.494;2023-10-08T21:18:53;101848.00;;;27.68;42.90
57616;BME280;43816;52.054;-9.494;2023-10-08T21:19:04;101868.66;;;27.79;43.14
57616;BME280;43816;52.054;-9.494;2023-10-08T21:19:14;101855.63;;;27.73;43.17
57616;BME280;43816;52.054;-9.494;2023-10-08T21:19:25;101866.94;;;27.78;43.15
57616;BME280;43816;52.054;-9.494;2023-10-08T21:19:35;101856.97;;;27.77;43.21
57616;BME280;43816;52.054;-9.494;2023-10-08T21:19:46;101866.28;;;27.76;43.21
57616;BME280;43816;52.054;-9.494;2023-10-08T21:19:56;101856.31;;;27.75;43.04
57616;BME280;43816;52.054;-9.494;2023-10-08T21:20:08;101847.13;;;27.67;43.09
57616;BME280;43816;52.054;-9.494;2023-10-08T21:20:19;101859.91;;;27.75;43.24
57616;BME280;43816;52.054;-9.494;2023-10-08T21:20:30;101860.75;;;27.76;42.93
57616;BME280;43816;52.054;-9.494;2023-10-08T21:20:41;101842.88;;;27.65;43.16
57616;BME280;43816;52.054;-9.494;2023-10-08T21:20:51;101864.59;;;27.75;42.98
57616;BME280;43816;52.054;-9.494;2023-10-08T21:21:08;101865.25;;;27.77;43.08
57616;BME280;43816;52.054;-9.494;2023-10-08T21:21:19;101853.97;;;27.72;42.80
57616;BME280;43816;52.054;-9.494;2023-10-08T21:21:29;101854.78;;;27.72;43.09
57616;BME280;43816;52.054;-9.494;2023-10-08T21:21:39;101861.84;;;27.75;42.97
57616;BME280;43816;52.054;-9.494;2023-10-08T21:21:51;101859.91;;;27.75;43.05
57616;BME280;43816;52.054;-9.494;2023-10-08T21:22:01;101853.97;;;27.72;43.05
57616;BME280;43816;52.054;-9.494;2023-10-08T21:22:12;101863.31;;;27.77;43.10
57616;BME280;43816;52.054;-9.494;2023-10-08T21:22:22;101859.06;;;27.75;43.03
57616;BME280;43816;52.054;-9.494;2023-10-08T21:22:32;101848.00;;;27.68;42.86
57616;BME280;43816;52.054;-9.494;2023-10-08T21:22:44;101862.47;;;27.77;42.81
57616;BME280;43816;52.054;-9.494;2023-10-08T21:22:55;101866.28;;;27.76;43.03
57616;BME280;43816;52.054;-9.494;2023-10-08T21:23:05;101845.63;;;27.65;42.88
57616;BME280;43816;52.054;-9.494;2023-10-08T21:23:15;101864.81;;;27.73;42.97
57616;BME280;43816;52.054;-9.494;2023-10-08T21:23:26;101847.75;;;27.63;43.10
57616;BME280;43816;52.054;-9.494;2023-10-08T21:23:36;101861.84;;;27.75;43.10
57616;BME280;43816;52.054;-9.494;2023-10-08T21:23:46;101860.53;;;27.71;42.97
57616;BME280;43816;52.054;-9.494;2023-10-08T21:23:57;101861.16;;;27.73;43.00
57616;BME280;43816;52.054;-9.494;2023-10-08T21:24:07;101864.59;;;27.75;43.09
57616;BME280;43816;52.054;-9.494;2023-10-08T21:24:17;101854.38;;;27.68;43.21
57616;BME280;43816;52.054;-9.494;2023-10-08T21:24:27;101859.03;;;27.68;43.24
57616;BME280;43816;52.054;-9.494;2023-10-08T21:24:38;101849.25;;;27.65;42.87
57616;BME280;43816;52.054;-9.494;2023-10-08T21:24:48;101847.53;;;27.64;42.92
57616;BME280;43816;52.054;-9.494;2023-10-08T21:24:58;101864.13;;;27.71;43.17
57616;BME280;43816;52.054;-9.494;2023-10-08T21:25:09;101865.00;;;27.72;42.75
57616;BME280;43816;52.054;-9.494;2023-10-08T21:25:20;101863.72;;;27.74;43.03
57616;BME280;43816;52.054;-9.494;2023-10-08T21:25:31;101870.13;;;27.75;43.15
57616;BME280;43816;52.054;-9.494;2023-10-08T21:25:41;101852.00;;;27.65;43.14
57616;BME280;43816;52.054;-9.494;2023-10-08T21:25:51;101840.72;;;27.60;42.83
57616;BME280;43816;52.054;-9.494;2023-10-08T21:26:02;101851.16;;;27.65;43.17
57616;BME280;43816;52.054;-9.494;2023-10-08T21:26:17;101868.41;;;27.74;42.80
57616;BME280;43816;52.054;-9.494;2023-10-08T21:26:28;101869.66;;;27.71;43.34
57616;BME280;43816;52.054;-9.494;2023-10-08T21:26:38;101845.63;;;27.65;43.13
57616;BME280;43816;52.054;-9.494;2023-10-08T21:26:48;101841.34;;;27.62;43.19
57616;BME280;43816;52.054;-9.494;2023-10-08T21:26:58;101864.13;;;27.71;43.15
57616;BME280;43816;52.054;-9.494;2023-10-08T21:27:09;101844.75;;;27.64;42.89
57616;BME280;43816;52.054;-9.494;2023-10-08T21:27:19;101861.16;;;27.73;42.97
57616;BME280;43816;52.054;-9.494;2023-10-08T21:27:29;101857.75;;;27.71;42.90
57616;BME280;43816;52.054;-9.494;2023-10-08T21:27:41;101842.44;;;27.61;43.08
57616;BME280;43816;52.054;-9.494;2023-10-08T21:27:53;101851.41;;;27.70;42.99
57616;BME280;43816;52.054;-9.494;2023-10-08T21:28:04;101842.00;;;27.64;42.89
57616;BME280;43816;52.054;-9.494;2023-10-08T21:28:14;101857.75;;;27.71;42.93
57616;BME280;43816;52.054;-9.494;2023-10-08T21:28:24;101858.41;;;27.73;42.96
57616;BME280;43816;52.054;-9.494;2023-10-08T21:28:34;101847.53;;;27.64;42.92
57616;BME280;43816;52.054;-9.494;2023-10-08T21:28:45;101857.75;;;27.71;42.91
57616;BME280;43816;52.054;-9.494;2023-10-08T21:28:55;101856.72;;;27.72;42.84
57616;BME280;43816;52.054;-9.494;2023-10-08T21:29:05;101858.84;;;27.69;42.85
57616;BME280;43816;52.054;-9.494;2023-10-08T21:29:15;101846.47;;;27.65;42.99
57616;BME280;43816;52.054;-9.494;2023-10-08T21:29:26;101847.53;;;27.64;43.04
57616;BME280;43816;52.054;-9.494;2023-10-08T21:29:36;101856.91;;;27.70;42.97
57616;BME280;43816;52.054;-9.494;2023-10-08T21:29:49;101862.25;;;27.72;42.97
57616;BME280;43816;52.054;-9.494;2023-10-08T21:29:59;101850.09;;;27.66;43.17
57616;BME280;43816;52.054;-9.494;2023-10-08T21:30:11;101852.00;;;27.65;43.04
57616;BME280;43816;52.054;-9.494;2023-10-08T21:30:22;101864.13;;;27.71;43.03